createdAt,value
2019-01-10T00:00:50.728Z,0.70
2019-01-10T00:03:18.168Z,0.70
2019-01-10T00:05:45.552Z,0.70
2019-01-10T00:08:12.892Z,0.80
2019-01-10T00:10:40.338Z,0.80
2019-01-10T00:13:07.722Z,0.70
2019-01-10T00:15:35.218Z,0.70
2019-01-10T00:18:02.572Z,0.60
2019-01-10T00:20:29.992Z,0.70
2019-01-10T00:22:57.596Z,0.60
2019-01-10T00:25:25.030Z,0.60
2019-01-10T00:27:52.379Z,0.60
2019-01-10T00:30:19.971Z,0.60
2019-01-10T00:32:47.491Z,0.60
2019-01-10T00:35:15.095Z,0.60
2019-01-10T00:37:42.524Z,0.70
2019-01-10T00:40:11.560Z,0.70
2019-01-10T00:42:38.995Z,0.70
2019-01-10T00:45:09.037Z,0.70
2019-01-10T00:47:36.462Z,0.70
2019-01-10T00:50:05.078Z,0.60
2019-01-10T00:52:32.525Z,0.60
2019-01-10T00:54:59.940Z,0.60
2019-01-10T00:57:27.307Z,0.60
2019-01-10T00:59:54.662Z,0.60
2019-01-10T01:02:22.160Z,0.70
2019-01-10T01:04:49.524Z,0.60
2019-01-10T01:07:16.948Z,0.60
2019-01-10T01:09:44.276Z,0.60
2019-01-10T01:12:11.791Z,0.60
2019-01-10T01:14:39.277Z,0.60
2019-01-10T01:17:06.732Z,0.60
2019-01-10T01:19:34.087Z,0.60
2019-01-10T01:22:01.661Z,0.70
2019-01-10T01:24:29.024Z,0.60
2019-01-10T01:26:56.418Z,0.60
2019-01-10T01:29:23.794Z,0.60
2019-01-10T01:31:51.300Z,0.70
2019-01-10T01:34:18.657Z,0.60
2019-01-10T01:36:46.213Z,0.60
2019-01-10T01:39:13.793Z,0.60
2019-01-10T01:41:41.132Z,0.60
2019-01-10T01:44:08.492Z,0.60
2019-01-10T01:46:36.078Z,0.60
2019-01-10T01:49:03.480Z,0.60
2019-01-10T01:51:30.804Z,0.60
2019-01-10T01:53:58.306Z,0.60
2019-01-10T01:56:25.639Z,0.60
2019-01-10T01:58:53.055Z,0.60
2019-01-10T02:01:20.447Z,0.60
2019-01-10T02:03:47.852Z,0.70
2019-01-10T02:06:15.337Z,0.70
2019-01-10T02:08:42.907Z,0.70
2019-01-10T02:11:10.360Z,0.70
2019-01-10T02:13:37.812Z,0.70
2019-01-10T02:16:05.156Z,0.70
2019-01-10T02:18:32.676Z,0.70
2019-01-10T02:21:00.062Z,0.80
2019-01-10T02:23:27.545Z,0.70
2019-01-10T02:25:54.880Z,0.60
2019-01-10T02:28:22.335Z,0.70
2019-01-10T02:30:49.765Z,0.70
2019-01-10T02:33:17.243Z,0.70
2019-01-10T02:35:44.809Z,0.80
2019-01-10T02:38:12.167Z,0.80
2019-01-10T02:40:39.593Z,0.80
2019-01-10T02:43:06.918Z,0.80
2019-01-10T02:45:34.342Z,0.80
2019-01-10T02:48:01.776Z,0.80
2019-01-10T02:50:29.210Z,0.90
2019-01-10T02:52:56.699Z,0.90
2019-01-10T02:55:24.175Z,0.80
2019-01-10T02:57:51.504Z,0.80
2019-01-10T03:00:21.061Z,0.90
2019-01-10T03:02:48.417Z,0.90
2019-01-10T03:05:16.082Z,0.90
2019-01-10T03:07:43.525Z,0.90
2019-01-10T03:10:11.857Z,0.90
2019-01-10T03:12:39.283Z,0.80
2019-01-10T03:15:06.804Z,0.70
2019-01-10T03:17:34.386Z,0.80
2019-01-10T03:20:01.947Z,0.80
2019-01-10T03:22:29.401Z,0.90
2019-01-10T03:24:56.766Z,1.00
2019-01-10T03:27:24.232Z,0.90
2019-01-10T03:29:51.456Z,0.80
2019-01-10T03:32:19.018Z,0.80
2019-01-10T03:34:46.493Z,0.80
2019-01-10T03:37:14.048Z,0.80
2019-01-10T03:39:41.611Z,0.80
2019-01-10T03:42:09.092Z,0.90
2019-01-10T03:44:36.526Z,0.90
2019-01-10T03:47:04.083Z,0.90
2019-01-10T03:49:31.432Z,0.90
2019-01-10T03:51:58.869Z,0.90
2019-01-10T03:54:26.217Z,1.00
2019-01-10T03:56:53.652Z,1.00
2019-01-10T03:59:20.997Z,0.90
2019-01-10T04:01:48.453Z,0.90
2019-01-10T04:04:15.817Z,0.80
2019-01-10T04:06:43.184Z,0.90
2019-01-10T04:09:10.609Z,0.80
2019-01-10T04:11:37.945Z,0.80
2019-01-10T04:14:05.433Z,0.80
2019-01-10T04:16:32.918Z,0.70
2019-01-10T04:19:00.359Z,0.70
2019-01-10T04:21:27.725Z,0.60
2019-01-10T04:23:55.197Z,0.70
2019-01-10T04:26:22.587Z,0.70
2019-01-10T04:28:50.028Z,0.70
2019-01-10T04:31:17.423Z,0.70
2019-01-10T04:33:45.063Z,0.60
2019-01-10T04:36:12.521Z,0.60
2019-01-10T04:38:39.862Z,0.60
2019-01-10T04:41:07.253Z,0.70
2019-01-10T04:43:34.564Z,0.70
2019-01-10T04:46:02.101Z,0.70
2019-01-10T04:48:29.413Z,0.70
2019-01-10T04:50:56.909Z,0.70
2019-01-10T04:53:26.636Z,0.70
2019-01-10T04:55:53.637Z,0.80
2019-01-10T04:58:21.032Z,0.70
2019-01-10T05:00:48.529Z,0.80
2019-01-10T05:03:15.903Z,0.80
2019-01-10T05:05:43.326Z,0.80
2019-01-10T05:08:10.604Z,0.90
2019-01-10T05:10:38.207Z,0.90
2019-01-10T05:13:05.638Z,0.90
2019-01-10T05:15:32.990Z,0.80
2019-01-10T05:18:00.494Z,0.80
2019-01-10T05:20:27.964Z,0.70
2019-01-10T05:22:55.481Z,0.70
2019-01-10T05:25:22.838Z,0.70
2019-01-10T05:27:50.254Z,0.80
2019-01-10T05:30:22.559Z,0.80
2019-01-10T05:32:50.114Z,0.80
2019-01-10T05:35:17.451Z,0.80
2019-01-10T05:37:44.908Z,0.80
2019-01-10T05:40:12.269Z,0.80
2019-01-10T05:42:39.726Z,0.90
2019-01-10T05:45:08.730Z,0.90
2019-01-10T05:47:36.213Z,0.80
2019-01-10T05:50:04.742Z,0.70
2019-01-10T05:52:32.363Z,0.70
2019-01-10T05:54:59.706Z,0.70
2019-01-10T05:57:27.122Z,0.70
2019-01-10T05:59:54.558Z,0.80
2019-01-10T06:02:21.919Z,0.90
2019-01-10T06:04:49.415Z,0.90
2019-01-10T06:07:16.786Z,0.90
2019-01-10T06:09:44.099Z,0.90
2019-01-10T06:12:11.490Z,1.00
2019-01-10T06:14:38.937Z,0.90
2019-01-10T06:17:06.286Z,0.90
2019-01-10T06:19:33.729Z,0.90
2019-01-10T06:22:01.080Z,0.90
2019-01-10T06:24:28.559Z,0.90
2019-01-10T06:26:56.038Z,0.90
2019-01-10T06:29:23.527Z,0.90
2019-01-10T06:31:50.904Z,0.90
2019-01-10T06:34:18.468Z,0.90
2019-01-10T06:36:45.797Z,0.90
2019-01-10T06:39:13.221Z,0.90
2019-01-10T06:41:40.661Z,1.00
2019-01-10T06:44:08.371Z,1.10
2019-01-10T06:46:35.794Z,1.10
2019-01-10T06:49:03.493Z,1.20
2019-01-10T06:51:30.856Z,1.20
2019-01-10T06:53:58.215Z,1.10
2019-01-10T06:56:25.745Z,1.20
2019-01-10T06:58:53.185Z,1.20
2019-01-10T07:01:20.613Z,1.20
2019-01-10T07:03:48.012Z,1.10
2019-01-10T07:06:15.512Z,1.00
2019-01-10T07:08:42.897Z,1.00
2019-01-10T07:11:10.305Z,1.00
2019-01-10T07:13:37.681Z,0.90
2019-01-10T07:16:05.084Z,1.00
2019-01-10T07:18:32.542Z,1.00
2019-01-10T07:21:00.056Z,0.90
2019-01-10T07:23:27.376Z,0.90
2019-01-10T07:25:55.281Z,1.00
2019-01-10T07:28:23.121Z,1.00
2019-01-10T07:30:51.029Z,0.90
2019-01-10T07:33:18.550Z,1.00
2019-01-10T07:35:52.281Z,1.10
2019-01-10T07:38:19.656Z,1.10
2019-01-10T07:40:47.132Z,1.20
2019-01-10T07:43:19.108Z,1.20
2019-01-10T07:45:46.665Z,1.20
2019-01-10T07:48:14.072Z,1.20
2019-01-10T07:50:41.512Z,1.20
2019-01-10T07:53:09.384Z,1.20
2019-01-10T07:55:37.928Z,1.30
2019-01-10T07:58:05.564Z,1.30
2019-01-10T08:00:32.893Z,1.30
2019-01-10T08:03:00.983Z,1.20
2019-01-10T08:05:28.480Z,1.20
2019-01-10T08:07:55.977Z,1.20
2019-01-10T08:10:23.336Z,1.20
2019-01-10T08:12:50.765Z,1.20
2019-01-10T08:15:19.548Z,1.20
2019-01-10T08:17:47.000Z,1.10
2019-01-10T08:20:14.633Z,1.10
2019-01-10T08:22:42.210Z,1.10
2019-01-10T08:25:09.756Z,1.10
2019-01-10T08:27:37.075Z,1.00
2019-01-10T08:30:07.917Z,0.90
2019-01-10T08:32:35.357Z,1.00
2019-01-10T08:35:03.559Z,1.00
2019-01-10T08:37:30.925Z,1.00
2019-01-10T08:39:58.395Z,1.10
2019-01-10T08:42:25.724Z,1.20
2019-01-10T08:44:53.192Z,1.10
2019-01-10T08:47:20.613Z,1.00
2019-01-10T08:49:48.052Z,1.10
2019-01-10T08:52:15.587Z,1.20
2019-01-10T08:54:43.097Z,1.10
2019-01-10T08:57:10.449Z,1.20
2019-01-10T08:59:37.872Z,1.10
2019-01-10T09:02:05.283Z,1.20
2019-01-10T09:04:32.707Z,1.30
2019-01-10T09:07:00.160Z,1.20
2019-01-10T09:09:27.604Z,1.20
2019-01-10T09:11:55.041Z,1.30
2019-01-10T09:14:22.375Z,1.40
2019-01-10T09:16:49.911Z,1.30
2019-01-10T09:19:17.372Z,1.40
2019-01-10T09:21:44.808Z,1.40
2019-01-10T09:24:12.178Z,1.50
2019-01-10T09:26:39.754Z,1.40
2019-01-10T09:29:07.213Z,1.30
2019-01-10T09:31:34.632Z,1.40
2019-01-10T09:34:02.546Z,1.30
2019-01-10T09:36:29.982Z,1.30
2019-01-10T09:38:57.337Z,1.30
2019-01-10T09:41:24.924Z,1.50
2019-01-10T09:43:52.451Z,1.50
2019-01-10T09:46:19.907Z,1.60
2019-01-10T09:48:47.180Z,1.60
2019-01-10T09:51:14.761Z,1.60
2019-01-10T09:53:42.176Z,1.70
2019-01-10T09:56:09.409Z,1.70
2019-01-10T09:58:36.764Z,1.60
2019-01-10T10:01:04.138Z,1.60
2019-01-10T10:03:31.720Z,1.50
2019-01-10T10:06:07.337Z,1.50
2019-01-10T10:08:28.495Z,1.50
2019-01-10T10:10:55.844Z,1.50
2019-01-10T10:13:23.393Z,1.50
2019-01-10T10:15:52.819Z,1.60
2019-01-10T10:18:20.283Z,1.50
2019-01-10T10:20:47.705Z,1.60
2019-01-10T10:23:15.257Z,1.50
2019-01-10T10:25:42.658Z,1.50
2019-01-10T10:28:10.188Z,1.50
2019-01-10T10:30:37.567Z,1.50
2019-01-10T10:33:05.286Z,1.50
2019-01-10T10:35:32.736Z,1.60
2019-01-10T10:38:02.640Z,1.50
2019-01-10T10:40:30.033Z,1.50
2019-01-10T10:42:57.412Z,1.40
2019-01-10T10:45:24.832Z,1.40
2019-01-10T10:47:52.284Z,1.40
2019-01-10T10:50:27.240Z,1.30
2019-01-10T10:52:54.614Z,1.40
2019-01-10T10:55:22.040Z,1.40
2019-01-10T10:57:49.416Z,1.40
2019-01-10T11:00:25.407Z,1.50
2019-01-10T11:02:52.823Z,1.40
2019-01-10T11:05:20.170Z,1.30
2019-01-10T11:07:47.573Z,1.30
2019-01-10T11:10:16.388Z,1.40
2019-01-10T11:12:43.767Z,1.50
2019-01-10T11:15:11.229Z,1.50
2019-01-10T11:17:38.731Z,1.50
2019-01-10T11:20:11.679Z,1.60
2019-01-10T11:22:39.142Z,1.70
2019-01-10T11:25:10.472Z,1.70
2019-01-10T11:27:38.128Z,1.70
2019-01-10T11:30:07.193Z,1.70
2019-01-10T11:32:34.665Z,1.60
2019-01-10T11:35:02.142Z,1.60
2019-01-10T11:37:29.655Z,1.50
2019-01-10T11:39:57.144Z,1.50
2019-01-10T11:42:24.557Z,1.60
2019-01-10T11:44:52.108Z,1.60
2019-01-10T11:47:19.576Z,1.60
2019-01-10T11:49:46.937Z,1.60
2019-01-10T11:52:14.420Z,1.60
2019-01-10T11:54:41.768Z,1.70
2019-01-10T11:57:09.179Z,1.70
2019-01-10T11:59:36.554Z,1.80
2019-01-10T12:02:04.193Z,1.90
2019-01-10T12:04:31.612Z,1.90
2019-01-10T12:06:59.043Z,2.00
2019-01-10T12:09:26.489Z,2.00
2019-01-10T12:11:53.922Z,2.00
2019-01-10T12:14:21.301Z,1.90
2019-01-10T12:16:48.698Z,2.00
2019-01-10T12:19:16.069Z,1.90
2019-01-10T12:21:43.612Z,2.00
2019-01-10T12:24:10.982Z,2.10
2019-01-10T12:26:38.429Z,2.10
2019-01-10T12:29:05.792Z,2.00
2019-01-10T12:31:33.248Z,2.10
2019-01-10T12:34:00.691Z,2.20
2019-01-10T12:36:28.200Z,2.10
2019-01-10T12:38:58.297Z,2.00
2019-01-10T12:41:25.794Z,2.00
2019-01-10T12:43:53.171Z,2.00
2019-01-10T12:46:22.445Z,2.10
2019-01-10T12:48:49.918Z,2.10
2019-01-10T12:51:17.387Z,2.20
2019-01-10T12:53:44.822Z,2.20
2019-01-10T12:56:12.216Z,2.20
2019-01-10T12:58:39.640Z,2.20
2019-01-10T13:01:07.008Z,2.30
2019-01-10T13:03:34.596Z,2.20
2019-01-10T13:06:01.992Z,2.20
2019-01-10T13:08:29.436Z,2.10
2019-01-10T13:10:56.801Z,2.10
2019-01-10T13:13:24.303Z,2.10
2019-01-10T13:15:51.682Z,2.10
2019-01-10T13:18:19.115Z,2.10
2019-01-10T13:20:46.526Z,2.10
2019-01-10T13:23:13.896Z,2.10
2019-01-10T13:25:41.342Z,2.10
2019-01-10T13:28:08.822Z,2.00
2019-01-10T13:30:36.147Z,2.00
2019-01-10T13:33:08.391Z,2.00
2019-01-10T13:35:39.556Z,1.90
2019-01-10T13:38:07.016Z,1.90
2019-01-10T13:40:40.214Z,1.90
2019-01-10T13:43:07.728Z,1.90
2019-01-10T13:45:35.279Z,2.00
2019-01-10T13:48:02.671Z,2.00
2019-01-10T13:50:31.009Z,2.10
2019-01-10T13:52:58.464Z,2.20
2019-01-10T13:55:25.913Z,2.20
2019-01-10T13:57:53.441Z,2.10
2019-01-10T14:00:22.975Z,2.10
2019-01-10T14:02:50.387Z,2.10
2019-01-10T14:05:18.189Z,1.90
2019-01-10T14:07:45.968Z,1.90
2019-01-10T14:10:14.405Z,1.90
2019-01-10T14:12:41.840Z,1.90
2019-01-10T14:15:11.508Z,1.80
2019-01-10T14:17:39.026Z,1.80
2019-01-10T14:20:07.447Z,1.80
2019-01-10T14:22:35.018Z,1.80
2019-01-10T14:25:02.506Z,1.90
2019-01-10T14:27:29.988Z,1.90
2019-01-10T14:29:57.358Z,1.90
2019-01-10T14:32:24.901Z,1.80
2019-01-10T14:34:52.447Z,1.70
2019-01-10T14:37:19.985Z,1.80
2019-01-10T14:39:47.432Z,1.80
2019-01-10T14:42:14.891Z,1.80
2019-01-10T14:44:42.256Z,1.80
2019-01-10T14:47:09.693Z,1.80
2019-01-10T14:49:37.098Z,1.80
2019-01-10T14:52:07.177Z,1.90
2019-01-10T14:54:34.632Z,1.90
2019-01-10T14:57:02.000Z,1.90
2019-01-10T14:59:29.509Z,1.90
2019-01-10T15:01:56.891Z,2.00
2019-01-10T15:04:24.421Z,2.00
2019-01-10T15:06:51.869Z,1.90
2019-01-10T15:09:19.345Z,1.80
2019-01-10T15:11:47.290Z,1.70
2019-01-10T15:14:16.275Z,1.60
2019-01-10T15:16:43.919Z,1.60
2019-01-10T15:19:11.391Z,1.60
2019-01-10T15:21:38.721Z,1.60
2019-01-10T15:24:06.080Z,1.50
2019-01-10T15:26:33.524Z,1.60
2019-01-10T15:29:00.902Z,1.60
2019-01-10T15:31:28.389Z,1.60
2019-01-10T15:33:55.987Z,1.50
2019-01-10T15:36:23.430Z,1.40
2019-01-10T15:38:50.858Z,1.40
2019-01-10T15:41:18.284Z,1.40
2019-01-10T15:43:45.754Z,1.40
2019-01-10T15:46:13.217Z,1.50
2019-01-10T15:48:40.636Z,1.50
2019-01-10T15:51:08.153Z,1.60
2019-01-10T15:53:35.654Z,1.60
2019-01-10T15:56:03.259Z,1.60
2019-01-10T15:58:31.204Z,1.60
2019-01-10T16:00:58.922Z,1.50
2019-01-10T16:03:26.339Z,1.60
2019-01-10T16:05:53.851Z,1.60
2019-01-10T16:08:21.256Z,1.50
2019-01-10T16:10:48.861Z,1.50
2019-01-10T16:13:16.406Z,1.50
2019-01-10T16:15:43.805Z,1.60
2019-01-10T16:18:11.261Z,1.50
2019-01-10T16:20:38.619Z,1.50
2019-01-10T16:23:06.101Z,1.40
2019-01-10T16:25:33.570Z,1.40
2019-01-10T16:28:01.054Z,1.30
2019-01-10T16:30:30.112Z,1.30
2019-01-10T16:32:57.659Z,1.40
2019-01-10T16:35:25.117Z,1.40
2019-01-10T16:37:52.587Z,1.40
2019-01-10T16:40:20.021Z,1.30
2019-01-10T16:42:47.679Z,1.30
2019-01-10T16:45:18.115Z,1.30
2019-01-10T16:47:45.516Z,1.40
2019-01-10T16:50:13.329Z,1.40
2019-01-10T16:52:40.716Z,1.40
2019-01-10T16:55:08.877Z,1.40
2019-01-10T16:57:36.317Z,1.40
2019-01-10T17:00:06.732Z,1.50
2019-01-10T17:02:36.280Z,1.50
2019-01-10T17:05:04.122Z,1.50
2019-01-10T17:07:31.617Z,1.50
2019-01-10T17:09:59.139Z,1.50
2019-01-10T17:12:26.707Z,1.40
2019-01-10T17:14:54.181Z,1.50
2019-01-10T17:17:21.572Z,1.40
2019-01-10T17:19:48.965Z,1.50
2019-01-10T17:22:16.468Z,1.50
2019-01-10T17:24:43.848Z,1.40
2019-01-10T17:27:11.399Z,1.30
2019-01-10T17:29:38.948Z,1.30
2019-01-10T17:32:06.368Z,1.30
2019-01-10T17:34:33.962Z,1.30
2019-01-10T17:37:01.327Z,1.30
2019-01-10T17:39:28.791Z,1.40
2019-01-10T17:41:56.322Z,1.30
2019-01-10T17:44:23.822Z,1.30
2019-01-10T17:46:51.312Z,1.40
2019-01-10T17:49:18.746Z,1.40
2019-01-10T17:51:46.270Z,1.40
2019-01-10T17:54:13.788Z,1.40
2019-01-10T17:56:41.341Z,1.30
2019-01-10T17:59:08.829Z,1.30
2019-01-10T18:01:36.396Z,1.30
2019-01-10T18:04:04.417Z,1.30
2019-01-10T18:06:32.015Z,1.40
2019-01-10T18:08:59.652Z,1.40
2019-01-10T18:11:27.128Z,1.30
2019-01-10T18:13:54.794Z,1.40
2019-01-10T18:16:22.438Z,1.40
2019-01-10T18:18:50.065Z,1.40
2019-01-10T18:21:17.495Z,1.20
2019-01-10T18:23:44.999Z,1.10
2019-01-10T18:26:12.527Z,1.10
2019-01-10T18:28:40.084Z,1.00
2019-01-10T18:31:07.532Z,0.90
2019-01-10T18:33:35.195Z,0.90
2019-01-10T18:36:02.706Z,0.90
2019-01-10T18:38:30.370Z,0.90
2019-01-10T18:40:57.778Z,0.90
2019-01-10T18:43:25.299Z,0.80
2019-01-10T18:45:52.742Z,0.90
2019-01-10T18:48:20.473Z,0.90
2019-01-10T18:50:48.110Z,1.00
2019-01-10T18:53:15.747Z,1.10
2019-01-10T18:55:43.178Z,1.20
2019-01-10T18:58:10.874Z,1.30
2019-01-10T19:00:39.369Z,1.40
2019-01-10T19:03:07.054Z,1.50
2019-01-10T19:05:37.614Z,1.50
2019-01-10T19:08:05.328Z,1.60
2019-01-10T19:10:33.682Z,1.70
2019-01-10T19:13:01.182Z,1.80
2019-01-10T19:15:32.330Z,1.80
2019-01-10T19:18:03.360Z,1.90
2019-01-10T19:20:29.457Z,2.00
2019-01-10T19:22:59.045Z,2.10
2019-01-10T19:25:26.850Z,1.90
2019-01-10T19:27:54.546Z,1.90
2019-01-10T19:30:27.383Z,2.00
2019-01-10T19:32:55.295Z,2.00
2019-01-10T19:35:22.888Z,2.10
2019-01-10T19:37:50.528Z,2.10
2019-01-10T19:40:18.984Z,2.10
2019-01-10T19:42:46.566Z,2.10
2019-01-10T19:45:15.859Z,2.10
2019-01-10T19:47:43.345Z,2.10
2019-01-10T19:50:13.487Z,2.00
2019-01-10T19:52:41.084Z,1.90
2019-01-10T19:55:09.532Z,1.90
2019-01-10T19:57:36.974Z,1.80
2019-01-10T20:00:07.980Z,2.00
2019-01-10T20:02:35.551Z,2.10
2019-01-10T20:05:03.387Z,2.10
2019-01-10T20:07:30.855Z,2.10
2019-01-10T20:09:59.773Z,2.20
2019-01-10T20:12:27.172Z,2.10
2019-01-10T20:14:54.708Z,2.10
2019-01-10T20:17:22.273Z,2.10
2019-01-10T20:19:49.842Z,2.10
2019-01-10T20:22:17.216Z,2.10
2019-01-10T20:24:44.835Z,2.10
2019-01-10T20:27:12.652Z,2.10
2019-01-10T20:29:40.752Z,2.00
2019-01-10T20:32:08.281Z,1.80
2019-01-10T20:34:35.963Z,1.80
2019-01-10T20:37:03.702Z,1.80
2019-01-10T20:39:31.227Z,1.80
2019-01-10T20:42:02.001Z,1.90
2019-01-10T20:44:28.053Z,1.90
2019-01-10T20:46:55.493Z,2.00
2019-01-10T20:49:23.025Z,1.90
2019-01-10T20:51:50.426Z,2.00
2019-01-10T20:54:17.849Z,1.80
2019-01-10T20:56:45.327Z,1.70
2019-01-10T20:59:12.978Z,1.70
2019-01-10T21:01:40.428Z,1.80
2019-01-10T21:04:07.899Z,1.90
2019-01-10T21:06:36.049Z,1.80
2019-01-10T21:09:12.856Z,1.80
2019-01-10T21:11:36.702Z,1.80
2019-01-10T21:14:04.673Z,1.80
2019-01-10T21:16:32.125Z,1.70
2019-01-10T21:18:59.568Z,1.80
2019-01-10T21:21:27.006Z,1.70
2019-01-10T21:23:54.494Z,1.80
2019-01-10T21:26:22.097Z,1.90
2019-01-10T21:28:49.521Z,1.80
2019-01-10T21:31:18.254Z,1.80
2019-01-10T21:33:45.664Z,1.80
2019-01-10T21:36:13.205Z,1.80
2019-01-10T21:38:40.643Z,1.80
2019-01-10T21:41:09.233Z,1.80
2019-01-10T21:43:36.772Z,1.80
2019-01-10T21:46:04.372Z,1.80
2019-01-10T21:48:36.820Z,1.80
2019-01-10T21:51:04.267Z,1.90
2019-01-10T21:53:32.797Z,1.80
2019-01-10T21:56:00.908Z,1.80
2019-01-10T21:58:28.442Z,1.80
2019-01-10T22:00:55.867Z,1.80
2019-01-10T22:03:23.472Z,1.80
2019-01-10T22:05:50.919Z,1.90
2019-01-10T22:08:18.454Z,1.90
2019-01-10T22:10:45.861Z,1.90
2019-01-10T22:13:13.401Z,1.80
2019-01-10T22:15:40.786Z,1.80
2019-01-10T22:18:08.341Z,1.80
2019-01-10T22:20:42.124Z,1.80
2019-01-10T22:23:12.442Z,1.80
2019-01-10T22:26:05.542Z,1.80
2019-01-10T22:28:38.951Z,1.80
2019-01-10T22:31:22.076Z,1.80
2019-01-10T22:33:53.468Z,1.80
2019-01-10T22:36:24.714Z,1.70
2019-01-10T22:38:52.101Z,1.70
2019-01-10T22:41:24.006Z,1.70
2019-01-10T22:43:51.414Z,1.70
2019-01-10T22:46:20.960Z,1.60
2019-01-10T22:48:49.386Z,1.70
2019-01-10T22:51:16.857Z,1.70
2019-01-10T22:53:44.305Z,1.60
2019-01-10T22:56:11.778Z,1.50
2019-01-10T22:58:39.182Z,1.50
2019-01-10T23:01:37.447Z,1.40
2019-01-10T23:04:05.453Z,1.40
2019-01-10T23:06:32.931Z,1.30
2019-01-10T23:09:01.410Z,1.00
2019-01-10T23:11:30.023Z,1.00
2019-01-10T23:14:01.622Z,1.10
2019-01-10T23:16:33.142Z,1.00
2019-01-10T23:19:00.989Z,1.10
2019-01-10T23:21:30.252Z,1.10
2019-01-10T23:24:06.928Z,1.00
2019-01-10T23:26:34.402Z,0.90
2019-01-10T23:29:01.774Z,1.00
2019-01-10T23:31:32.030Z,0.90
2019-01-10T23:34:10.220Z,0.80
2019-01-10T23:36:37.716Z,0.80
2019-01-10T23:39:21.606Z,0.90
2019-01-10T23:41:49.976Z,0.90
2019-01-10T23:44:17.718Z,0.90
2019-01-10T23:46:45.267Z,0.80
2019-01-10T23:49:12.838Z,0.70
2019-01-10T23:51:40.397Z,0.70
2019-01-10T23:54:07.948Z,0.70
2019-01-10T23:56:35.342Z,0.60
2019-01-10T23:59:03.012Z,0.60
